Time;durP1;ratioP1;P1;durP2;ratioP2;P2;SDS_P1;SDS_P2;PMS_P1;PMS_P2;Temp;Humidity;BMP_temperature;BMP_pressure;BME280_temperature;BME280_humidity;BME280_pressure;Samples;Min_cycle;Max_cycle;Signal;HPM_P1;HPM_P2
2022/08/23 00:02:16;;;;;;;;;34.00;32.00;;;;;18.99;100.00;99125.16;6292962;20;3590879;-55
2022/08/23 00:04:51;;;;;;;;;32.00;29.67;;;;;19.03;100.00;99118.34;6284599;20;3594034;-54
2022/08/23 00:07:41;;;;;;;;;35.67;32.00;;;;;18.95;100.00;99123.75;6283336;20;3593440;-53
2022/08/23 00:10:15;;;;;;;;;33.00;30.33;;;;;18.71;100.00;99121.72;6319853;20;3588765;-53
2022/08/23 00:12:45;;;;;;;;;34.33;32.00;;;;;18.68;100.00;99129.38;6285958;20;3583583;-50
2022/08/23 00:15:19;;;;;;;;;40.67;32.33;;;;;18.74;100.00;99123.28;6284443;20;3603380;-55
2022/08/23 00:17:48;;;;;;;;;34.33;31.67;;;;;18.77;100.00;99131.13;6282235;20;3591038;-55
2022/08/23 00:20:19;;;;;;;;;33.67;30.33;;;;;18.77;100.00;99126.56;6280872;20;2858659;-52
2022/08/23 00:22:49;;;;;;;;;35.75;32.50;;;;;18.75;100.00;99125.88;6314263;20;3608640;-54
2022/08/23 00:25:19;;;;;;;;;39.00;33.00;;;;;18.79;100.00;99129.13;6312640;20;3594240;-53
2022/08/23 00:27:47;;;;;;;;;36.00;32.00;;;;;18.80;100.00;99130.81;6315559;20;3565847;-50
2022/08/23 00:30:17;;;;;;;;;38.33;31.33;;;;;18.94;100.00;99127.50;6285502;20;3595046;-53
2022/08/23 00:32:46;;;;;;;;;40.33;33.33;;;;;18.99;100.00;99127.88;6285034;20;3586746;-52
2022/08/23 00:35:17;;;;;;;;;28.00;28.00;;;;;19.02;100.00;99134.88;6282574;20;2854650;-51
2022/08/23 00:37:58;;;;;;;;;35.33;31.67;;;;;19.21;100.00;99144.66;6315268;20;3596117;-53
2022/08/23 00:40:51;;;;;;;;;39.00;33.33;;;;;19.17;100.00;99141.41;6293220;20;3597256;-51
2022/08/23 00:49:37;;;;;;;;;38.67;32.33;;;;;19.39;100.00;99139.97;6315501;20;3583665;-56
2022/08/23 00:52:41;;;;;;;;;36.67;31.67;;;;;19.37;100.00;99147.44;6319159;20;3594169;-54
2022/08/23 00:55:11;;;;;;;;;35.75;30.00;;;;;19.33;100.00;99146.06;6287237;20;3616049;-55
2022/08/23 00:57:40;;;;;;;;;30.33;27.00;;;;;19.39;100.00;99148.13;6320669;20;3568956;-52
2022/08/23 01:00:15;;;;;;;;;40.75;31.50;;;;;19.24;100.00;99149.75;6284585;20;3612931;-53
2022/08/23 01:02:47;;;;;;;;;38.33;33.33;;;;;19.27;100.00;99143.97;6316755;20;3595071;-51
2022/08/23 01:05:15;;;;;;;;;36.00;30.33;;;;;19.32;100.00;99141.63;6288367;20;3577490;-52
2022/08/23 01:07:54;;;;;;;;;37.00;32.00;;;;;19.30;100.00;99144.53;6286635;20;2839968;-53
2022/08/23 01:10:28;;;;;;;;;37.67;33.00;;;;;19.41;100.00;99150.69;6317878;20;1895076;-51
2022/08/23 01:13:43;;;;;;;;;33.33;29.67;;;;;19.43;100.00;99149.50;6317905;20;3584601;-53
2022/08/23 01:16:36;;;;;;;;;38.00;33.00;;;;;19.26;100.00;99147.72;6284953;20;3571138;-53
2022/08/23 01:19:21;;;;;;;;;35.00;31.33;;;;;19.34;100.00;99149.63;6286786;20;3595041;-49
2022/08/23 01:22:33;;;;;;;;;37.00;32.67;;;;;19.35;100.00;99152.19;6285910;20;3570074;-51
2022/08/23 01:25:09;;;;;;;;;36.50;33.00;;;;;19.16;100.00;99163.31;6285118;20;2828405;-52
2022/08/23 01:27:40;;;;;;;;;43.33;33.00;;;;;19.12;100.00;99162.81;6284768;20;3596459;-53
2022/08/23 01:30:15;;;;;;;;;42.33;33.00;;;;;19.27;100.00;99155.75;6290909;20;3582537;-53
2022/08/23 01:32:54;;;;;;;;;36.00;32.67;;;;;19.22;100.00;99152.66;6285209;20;3592981;-56
2022/08/23 01:35:42;;;;;;;;;37.67;33.00;;;;;19.14;100.00;99168.94;6319953;20;3579638;-52
2022/08/23 01:38:12;;;;;;;;;38.00;31.67;;;;;19.24;100.00;99179.69;6288062;20;3596136;-56
2022/08/23 01:40:43;;;;;;;;;40.33;34.33;;;;;19.37;100.00;99181.97;6285826;20;3595072;-52
2022/08/23 01:43:14;;;;;;;;;40.00;33.33;;;;;19.35;100.00;99167.66;6320173;20;3588765;-52
2022/08/23 01:45:43;;;;;;;;;43.33;36.33;;;;;19.29;100.00;99177.34;6287178;20;3611844;-52
2022/08/23 01:48:13;;;;;;;;;47.33;34.00;;;;;19.21;100.00;99174.59;6290414;20;3608559;-52
2022/08/23 01:50:44;;;;;;;;;47.50;36.75;;;;;19.19;100.00;99171.16;6288431;20;4363742;-53
2022/08/23 01:53:14;;;;;;;;;43.00;36.00;;;;;19.26;100.00;99181.25;6319219;20;3582563;-55
2022/08/23 01:55:43;;;;;;;;;38.00;34.33;;;;;19.24;100.00;99182.41;6284804;20;3589999;-51
2022/08/23 01:58:12;;;;;;;;;45.00;36.00;;;;;19.10;100.00;99180.31;6287073;20;3607599;-53
2022/08/23 02:00:43;;;;;;;;;43.67;35.67;;;;;19.08;100.00;99180.47;6287463;20;3599196;-56
2022/08/23 02:03:12;;;;;;;;;40.33;34.33;;;;;19.03;100.00;99180.09;6286763;20;3583556;-53
2022/08/23 02:05:41;;;;;;;;;42.00;32.33;;;;;19.20;100.00;99189.22;6288513;20;3583623;-53
2022/08/23 02:11:00;;;;;;;;;37.67;33.33;;;;;19.08;100.00;99189.47;6316782;20;3577393;-53
2022/08/23 02:13:29;;;;;;;;;44.00;35.00;;;;;19.07;100.00;99185.06;6282694;20;3595048;-54
2022/08/23 02:15:58;;;;;;;;;42.33;34.67;;;;;19.11;100.00;99192.91;6284912;20;3590894;-54
2022/08/23 02:18:28;;;;;;;;;44.33;36.00;;;;;19.17;100.00;99192.25;6286965;20;3587778;-54
2022/08/23 02:20:57;;;;;;;;;37.00;32.00;;;;;19.16;100.00;99193.25;6284696;20;3600252;-51
2022/08/23 02:23:27;;;;;;;;;37.33;32.00;;;;;19.15;100.00;99200.59;6285965;20;3584754;-54
2022/08/23 02:25:56;;;;;;;;;39.00;33.67;;;;;19.25;100.00;99201.31;6287644;20;3571082;-52
2022/08/23 02:28:25;;;;;;;;;46.33;35.00;;;;;18.97;100.00;99203.34;6293243;20;3598233;-54
2022/08/23 02:30:53;;;;;;;;;44.00;34.67;;;;;19.02;100.00;99208.31;6287748;20;3587729;-53
2022/08/23 02:33:23;;;;;;;;;45.50;33.75;;;;;19.07;100.00;99211.44;6289817;20;3614796;-54
2022/08/23 02:35:52;;;;;;;;;32.00;30.00;;;;;19.11;100.00;99209.22;6322750;20;3586783;-53
2022/08/23 02:38:21;;;;;;;;;36.67;31.67;;;;;19.01;100.00;99215.66;6288804;20;3605511;-54
2022/08/23 02:40:50;;;;;;;;;32.33;30.67;;;;;19.15;100.00;99214.19;6288249;20;3587706;-51
2022/08/23 02:43:29;;;;;;;;;41.67;33.00;;;;;19.20;100.00;99219.16;6286328;20;3603405;-51
2022/08/23 02:45:58;;;;;;;;;40.33;34.00;;;;;19.18;100.00;99219.31;6317915;20;3584676;-53
2022/08/23 02:48:27;;;;;;;;;37.00;32.00;;;;;19.26;100.00;99223.94;6289452;20;3587819;-57
2022/08/23 02:51:05;;;;;;;;;33.00;30.50;;;;;19.23;100.00;99227.84;6286413;20;2836907;-54
2022/08/23 02:53:34;;;;;;;;;35.00;31.33;;;;;19.11;100.00;99220.09;6285655;20;3588776;-53
2022/08/23 02:56:04;;;;;;;;;18.33;16.33;;;;;19.07;100.00;99215.00;6282113;20;3540931;-54
2022/08/23 02:58:41;;;;;;;;;35.00;30.00;;;;;19.24;100.00;99212.34;6319742;20;3590859;-54
2022/08/23 03:01:26;;;;;;;;;36.00;31.33;;;;;19.20;100.00;99214.56;6287564;20;3599179;-52
2022/08/23 03:03:57;;;;;;;;;36.00;32.00;;;;;19.13;100.00;99213.50;6289286;20;3599243;-54
2022/08/23 03:06:26;;;;;;;;;40.33;32.67;;;;;19.03;100.00;99216.31;6283794;20;3585669;-56
2022/08/23 03:08:56;;;;;;;;;42.00;33.50;;;;;19.15;100.00;99207.91;6287377;20;3611768;-48
2022/08/23 03:11:26;;;;;;;;;32.67;31.67;;;;;18.98;100.00;99210.50;6315604;20;3572208;-55
2022/08/23 03:13:55;;;;;;;;;31.67;30.00;;;;;19.03;100.00;99213.59;6285891;20;3598477;-54
2022/08/23 03:16:24;;;;;;;;;35.67;30.33;;;;;19.01;100.00;99218.38;6285424;20;3593956;-50
2022/08/23 03:18:53;;;;;;;;;35.00;30.00;;;;;19.04;100.00;99220.75;6288414;20;3596065;-55
2022/08/23 03:21:22;;;;;;;;;34.00;29.00;;;;;19.04;100.00;99225.34;6284013;20;2813861;-52
2022/08/23 03:23:52;;;;;;;;;31.33;30.67;;;;;19.01;100.00;99220.22;6288139;20;3596686;-56
2022/08/23 03:26:20;;;;;;;;;33.33;31.33;;;;;19.02;100.00;99228.22;6287139;20;3567991;-55
2022/08/23 03:28:50;;;;;;;;;33.33;30.00;;;;;19.10;100.00;99215.69;6285738;20;3589805;-53
2022/08/23 03:31:21;;;;;;;;;35.00;31.00;;;;;19.02;100.00;99211.91;6317603;20;3580476;-55
2022/08/23 03:33:50;;;;;;;;;32.33;29.33;;;;;19.05;100.00;99216.16;6286640;20;3576425;-56
2022/08/23 03:36:20;;;;;;;;;38.00;30.25;;;;;18.98;100.00;99212.38;6288110;20;3604504;-62
2022/08/23 03:38:57;;;;;;;;;35.67;31.00;;;;;18.96;100.00;99220.72;6318248;20;3581603;-62
2022/08/23 03:41:27;;;;;;;;;34.75;30.50;;;;;19.14;100.00;99230.66;6289506;20;3610698;-62
2022/08/23 03:43:55;;;;;;;;;30.33;29.33;;;;;19.07;100.00;99234.03;6316684;20;3595186;-61
2022/08/23 03:46:24;;;;;;;;;35.33;29.00;;;;;19.07;100.00;99231.31;6284325;20;3586679;-62
2022/08/23 03:48:58;;;;;;;;;36.00;32.33;;;;;19.14;100.00;99242.44;6286707;20;3592946;-62
2022/08/23 03:51:30;;;;;;;;;43.33;33.33;;;;;19.06;100.00;99251.41;6288559;20;3594041;-62
2022/08/23 03:53:59;;;;;;;;;36.67;30.67;;;;;19.06;100.00;99232.34;6287089;20;3592073;-63
2022/08/23 03:56:35;;;;;;;;;27.00;26.00;;;;;19.05;100.00;99246.94;6284547;20;3588793;-63
2022/08/23 03:59:12;;;;;;;;;41.75;32.00;;;;;18.98;100.00;99251.31;6289222;20;3603510;-62
2022/08/23 04:01:42;;;;;;;;;32.33;28.33;;;;;19.05;100.00;99249.66;6315885;20;3594007;-63
2022/08/23 04:04:11;;;;;;;;;34.33;30.00;;;;;18.99;100.00;99250.31;6316682;20;3580454;-62
2022/08/23 04:06:40;;;;;;;;;33.67;30.67;;;;;19.11;100.00;99252.75;6283195;20;3583550;-63
2022/08/23 04:09:11;;;;;;;;;38.25;32.25;;;;;19.06;100.00;99258.69;6288567;20;3601273;-63
2022/08/23 04:11:40;;;;;;;;;20.67;20.67;;;;;19.12;100.00;99265.38;6316856;20;3567926;-63
2022/08/23 04:14:09;;;;;;;;;36.33;33.33;;;;;19.13;100.00;99272.50;6281698;20;3588825;-63
2022/08/23 04:16:39;;;;;;;;;32.67;29.67;;;;;19.18;100.00;99278.34;6285604;20;3601326;-63
2022/08/23 04:19:13;;;;;;;;;34.25;31.25;;;;;19.26;100.00;99278.38;6283634;20;3605457;-63
2022/08/23 04:21:52;;;;;;;;;31.67;27.33;;;;;19.22;100.00;99274.25;6315693;20;3597124;-62
2022/08/23 04:24:24;;;;;;;;;33.00;31.00;;;;;19.16;100.00;99273.03;6282294;20;3584626;-63
2022/08/23 04:26:52;;;;;;;;;36.00;30.00;;;;;19.37;100.00;99279.97;6283461;20;3600228;-63
2022/08/23 04:29:21;;;;;;;;;34.00;29.67;;;;;19.36;100.00;99279.13;6285088;20;3593969;-63
2022/08/23 04:32:03;;;;;;;;;39.50;30.50;;;;;19.30;100.00;99271.63;6286530;20;3614854;-63
2022/08/23 04:34:38;;;;;;;;;30.00;30.00;;;;;19.51;100.00;99272.09;6312111;20;1903389;-62
2022/08/23 04:37:09;;;;;;;;;32.25;27.75;;;;;19.31;100.00;99267.88;6282463;20;3596111;-62
2022/08/23 04:42:26;;;;;;;;;31.33;30.00;;;;;19.26;100.00;99281.09;6317025;20;3569021;-62
2022/08/23 04:44:56;;;;;;;;;37.33;30.67;;;;;19.36;100.00;99283.72;6283411;20;3597420;-62
2022/08/23 04:47:25;;;;;;;;;34.00;27.00;;;;;19.21;100.00;99278.84;6286475;20;3623208;-62
2022/08/23 04:49:54;;;;;;;;;30.33;26.00;;;;;19.41;100.00;99284.94;6315229;20;3579414;-62
2022/08/23 04:52:23;;;;;;;;;31.33;29.00;;;;;19.38;100.00;99278.97;6283071;20;3598144;-62
2022/08/23 04:54:53;;;;;;;;;36.75;26.50;;;;;19.24;100.00;99292.16;6280340;20;3651384;-61
2022/08/23 04:57:22;;;;;;;;;31.33;27.33;;;;;19.27;100.00;99290.97;6312433;20;2846144;-61
2022/08/23 04:59:51;;;;;;;;;28.00;27.00;;;;;19.42;100.00;99286.66;6314023;20;3572123;-62
2022/08/23 05:02:20;;;;;;;;;31.67;28.33;;;;;19.36;100.00;99295.47;6283078;20;3582934;-61
2022/08/23 05:04:48;;;;;;;;;28.67;28.00;;;;;19.47;100.00;99294.34;6282188;20;3571082;-61
2022/08/23 05:07:17;;;;;;;;;31.00;26.00;;;;;19.41;100.00;99298.56;6283668;20;3592020;-62
2022/08/23 05:09:46;;;;;;;;;29.67;25.33;;;;;19.29;100.00;99311.56;6283387;20;3574238;-65
2022/08/23 05:12:14;;;;;;;;;26.67;26.67;;;;;19.19;100.00;99321.69;6278746;20;3575230;-64
2022/08/23 05:14:43;;;;;;;;;32.33;26.00;;;;;19.19;100.00;99318.97;6277381;20;3602484;-65
2022/08/23 05:17:15;;;;;;;;;27.67;26.00;;;;;19.17;100.00;99325.59;6280876;20;3582513;-65
2022/08/23 05:19:44;;;;;;;;;32.00;30.00;;;;;19.00;100.00;99322.75;6284753;20;3570045;-66
2022/08/23 05:22:14;;;;;;;;;29.33;28.33;;;;;18.97;100.00;99325.78;6283196;20;3572207;-66
2022/08/23 05:24:45;;;;;;;;;28.67;26.67;;;;;18.99;100.00;99331.94;6283617;20;3573310;-65
2022/08/23 05:27:14;;;;;;;;;25.67;24.00;;;;;19.06;100.00;99333.03;6287293;20;3570183;-66
2022/08/23 05:29:43;;;;;;;;;30.67;30.00;;;;;19.19;100.00;99331.75;6289201;20;3579428;-65
2022/08/23 05:32:11;;;;;;;;;27.00;27.00;;;;;19.22;100.00;99342.31;6290154;20;3573140;-65
2022/08/23 05:34:40;;;;;;;;;26.67;24.00;;;;;19.15;100.00;99346.69;6284879;20;3571173;-65
2022/08/23 05:37:09;;;;;;;;;26.67;25.67;;;;;19.26;100.00;99349.16;6286171;20;3567107;-65
2022/08/23 05:39:38;;;;;;;;;31.33;28.67;;;;;19.01;100.00;99345.38;6287365;20;3598196;-65
2022/08/23 05:42:13;;;;;;;;;28.00;27.00;;;;;19.01;100.00;99358.97;6289140;20;3568015;-65
2022/08/23 05:44:44;;;;;;;;;30.33;28.00;;;;;18.96;100.00;99366.78;6284941;20;3579438;-65
2022/08/23 05:47:16;;;;;;;;;31.67;29.00;;;;;19.09;100.00;99369.97;6289021;20;3592921;-65
2022/08/23 05:49:51;;;;;;;;;29.67;28.67;;;;;19.20;100.00;99364.25;6289261;20;3579373;-65
2022/08/23 05:52:19;;;;;;;;;29.33;24.33;;;;;19.41;100.00;99373.97;6282791;20;3579453;-64
2022/08/23 05:54:49;;;;;;;;;33.00;25.00;;;;;19.22;100.00;99366.81;6281621;20;3602449;-64
2022/08/23 05:57:17;;;;;;;;;29.67;29.00;;;;;19.30;100.00;99377.78;6317456;20;3600309;-65
2022/08/23 05:59:46;;;;;;;;;27.33;23.33;;;;;19.34;100.00;99375.59;6287666;20;3573269;-64
2022/08/23 06:02:15;;;;;;;;;25.00;25.00;;;;;19.32;100.00;99370.28;6286138;20;3564912;-65
2022/08/23 06:04:44;;;;;;;;;32.00;25.67;;;;;19.63;100.00;99367.97;6286783;20;3597094;-65
2022/08/23 06:07:12;;;;;;;;;29.67;24.67;;;;;19.74;100.00;99366.88;6286182;20;3587743;-65
2022/08/23 06:09:42;;;;;;;;;24.33;21.00;;;;;19.95;100.00;99367.31;6285431;20;2846091;-64
2022/08/23 06:12:11;;;;;;;;;23.67;22.33;;;;;19.81;100.00;99354.31;6320508;20;3586798;-64
2022/08/23 06:14:40;;;;;;;;;26.00;24.33;;;;;20.02;100.00;99366.69;6282318;20;3573209;-63
2022/08/23 06:17:09;;;;;;;;;21.50;19.00;;;;;20.21;100.00;99371.03;6284091;20;2832007;-65
2022/08/23 06:19:38;;;;;;;;;27.67;25.00;;;;;20.26;100.00;99372.25;6289433;20;3575256;-65
2022/08/23 06:22:07;;;;;;;;;23.67;22.00;;;;;20.39;100.00;99367.19;6285300;20;2848283;-64
2022/08/23 06:24:36;;;;;;;;;22.00;21.00;;;;;20.14;100.00;99362.63;6318371;20;3577313;-65
2022/08/23 06:27:06;;;;;;;;;25.00;22.33;;;;;20.34;100.00;99365.97;6284395;20;2839830;-64
2022/08/23 06:29:35;;;;;;;;;20.67;17.67;;;;;20.47;100.00;99360.91;6321843;20;3568065;-64
2022/08/23 06:32:04;;;;;;;;;24.33;21.67;;;;;20.52;100.00;99363.13;6291294;20;3572133;-64
2022/08/23 06:34:37;;;;;;;;;26.00;22.67;;;;;20.79;100.00;99370.22;6279652;20;2841911;-65
2022/08/23 06:37:11;;;;;;;;;22.33;21.33;;;;;21.18;100.00;99359.50;6318473;20;3572189;-65
2022/08/23 06:39:40;;;;;;;;;22.00;21.00;;;;;21.31;100.00;99366.34;6286912;20;3579461;-65
2022/08/23 06:42:14;;;;;;;;;24.33;21.67;;;;;21.26;100.00;99355.91;6287628;20;3576376;-65
2022/08/23 06:45:05;;;;;;;;;21.33;21.33;;;;;24.91;82.94;99371.94;6284086;20;3577416;-65
2022/08/23 06:47:35;;;;;;;;;22.67;22.00;;;;;26.10;79.21;99379.53;6284028;20;3569050;-64
2022/08/23 06:50:04;;;;;;;;;21.33;20.00;;;;;26.36;75.54;99379.66;6287963;20;3560206;-66
2022/08/23 06:52:33;;;;;;;;;20.67;19.33;;;;;23.27;88.72;99368.28;6289043;20;3565840;-63
2022/08/23 06:55:02;;;;;;;;;20.00;18.67;;;;;28.41;70.48;99385.59;6281970;20;3564811;-64
2022/08/23 06:57:31;;;;;;;;;20.67;19.00;;;;;24.74;81.27;99380.38;6286967;20;3564889;-64
2022/08/23 07:00:00;;;;;;;;;18.67;17.00;;;;;22.99;92.14;99377.06;6290290;20;3571081;-66
2022/08/23 07:02:29;;;;;;;;;24.33;21.33;;;;;25.37;86.11;99388.03;6288175;20;3581497;-64
2022/08/23 07:04:58;;;;;;;;;25.67;21.00;;;;;26.45;74.95;99388.59;6290193;20;3581504;-65
2022/08/23 07:07:28;;;;;;;;;25.00;24.00;;;;;24.15;81.20;99376.88;6280766;20;3587778;-65
2022/08/23 07:10:09;;;;;;;;;19.00;19.00;;;;;23.97;87.09;99385.47;6288243;20;3572156;-66
2022/08/23 07:12:41;;;;;;;;;22.00;20.33;;;;;22.49;90.53;99391.22;6285042;20;2828415;-67
2022/08/23 07:15:11;;;;;;;;;18.00;18.00;;;;;22.01;96.06;99388.44;6312360;20;3571093;-65
2022/08/23 07:17:41;;;;;;;;;20.00;20.00;;;;;22.00;98.62;99389.47;6313268;20;3581527;-66
2022/08/23 07:20:10;;;;;;;;;24.33;23.33;;;;;21.74;99.59;99386.97;6322328;20;3556499;-66
2022/08/23 07:22:39;;;;;;;;;23.67;21.00;;;;;22.19;96.85;99392.84;6284693;20;3577396;-66
2022/08/23 07:25:08;;;;;;;;;21.33;19.67;;;;;22.03;97.00;99397.31;6286318;20;3569000;-66
2022/08/23 07:27:37;;;;;;;;;21.00;18.00;;;;;21.85;97.40;99402.13;6288221;20;3565906;-66
2022/08/23 07:30:07;;;;;;;;;21.33;19.00;;;;;21.84;99.24;99408.66;6287948;20;3581489;-66
2022/08/23 07:32:36;;;;;;;;;29.67;27.00;;;;;21.82;99.39;99410.69;6285958;20;3591922;-67
2022/08/23 07:35:06;;;;;;;;;24.67;23.00;;;;;21.89;99.22;99412.56;6284790;20;3573225;-66
2022/08/23 07:37:36;;;;;;;;;23.33;22.33;;;;;22.05;97.97;99411.66;6285183;20;3560676;-66
2022/08/23 07:40:07;;;;;;;;;24.00;18.00;;;;;22.42;95.14;99412.94;6282615;20;2842006;-66
2022/08/23 07:42:37;;;;;;;;;22.67;22.67;;;;;22.30;95.83;99414.34;6287777;20;3571053;-66
2022/08/23 07:45:07;;;;;;;;;23.67;20.33;;;;;22.11;95.93;99416.41;6288683;20;3571087;-51
2022/08/23 07:47:37;;;;;;;;;20.67;20.67;;;;;22.07;93.80;99417.81;6286056;20;3576412;-53
2022/08/23 07:50:06;;;;;;;;;20.00;19.00;;;;;22.26;94.83;99411.13;6286727;20;3571060;-52
2022/08/23 07:52:35;;;;;;;;;19.33;18.67;;;;;22.05;94.68;99414.41;6285207;20;3574300;-57
2022/08/23 07:55:05;;;;;;;;;21.00;17.00;;;;;22.18;95.51;99429.41;6282715;20;2776400;-54
2022/08/23 07:57:34;;;;;;;;;23.00;20.00;;;;;22.38;96.00;99421.66;6285075;20;2794023;-56
2022/08/23 08:00:05;;;;;;;;;20.00;19.00;;;;;22.23;93.67;99424.31;6284979;20;2829549;-59
2022/08/23 08:02:34;;;;;;;;;16.67;16.67;;;;;21.94;95.49;99425.72;6288269;20;3560662;-53
2022/08/23 08:05:03;;;;;;;;;9.33;8.33;;;;;22.43;96.15;99431.03;6288907;20;2757565;-53
2022/08/23 08:07:32;;;;;;;;;18.67;18.67;;;;;22.40;93.77;99433.28;6314323;20;3574344;-62
2022/08/23 08:10:06;;;;;;;;;24.67;22.00;;;;;22.24;96.37;99431.47;6286638;20;3574245;-61
2022/08/23 08:12:35;;;;;;;;;21.67;21.67;;;;;22.60;92.96;99436.47;6287406;20;3579385;-61
2022/08/23 08:15:04;;;;;;;;;26.33;22.67;;;;;22.43;94.18;99435.66;6285215;20;3578348;-62
2022/08/23 08:17:33;;;;;;;;;27.33;22.33;;;;;22.45;95.11;99437.19;6282261;20;3576905;-62
2022/08/23 08:20:03;;;;;;;;;23.00;21.67;;;;;22.73;93.95;99431.28;6285726;20;3573290;-62
2022/08/23 08:22:32;;;;;;;;;20.67;20.67;;;;;22.98;91.67;99427.38;6285783;20;2829420;-62
2022/08/23 08:25:01;;;;;;;;;23.00;20.67;;;;;23.35;90.05;99425.75;6315399;20;3570068;-63
2022/08/23 08:27:31;;;;;;;;;24.67;21.33;;;;;23.38;90.26;99433.63;6282740;20;3577377;-62
2022/08/23 08:30:07;;;;;;;;;16.33;16.33;;;;;23.05;89.62;99433.00;6283069;20;3577317;-63
2022/08/23 08:32:36;;;;;;;;;19.67;18.67;;;;;23.90;90.53;99439.34;6318497;20;3581600;-63
2022/08/23 08:35:14;;;;;;;;;21.67;21.00;;;;;24.19;85.58;99450.34;6281118;20;3565965;-63
2022/08/23 08:37:43;;;;;;;;;18.00;17.00;;;;;24.71;81.41;99449.41;6279873;20;3566987;-63
2022/08/23 08:40:15;;;;;;;;;19.00;18.67;;;;;25.15;79.06;99450.38;6279869;20;2829558;-61
2022/08/23 08:43:05;;;;;;;;;17.67;16.00;;;;;24.96;78.57;99449.06;6314142;20;3550244;-60
2022/08/23 08:46:04;;;;;;;;;21.00;17.67;;;;;23.57;81.28;99447.84;6311514;20;2842028;-60
2022/08/23 08:48:44;;;;;;;;;15.00;15.00;;;;;24.78;79.25;99443.16;6316295;20;2686708;-62
2022/08/23 08:52:00;;;;;;;;;16.67;16.67;;;;;25.63;74.26;99450.66;6312627;20;3560777;-62
2022/08/23 08:54:31;;;;;;;;;12.33;12.00;;;;;25.65;74.23;99459.56;6282424;20;2475303;-62
2022/08/23 08:57:01;;;;;;;;;14.50;14.50;;;;;25.03;77.02;99461.00;6288453;20;2810732;-61
2022/08/23 08:59:59;;;;;;;;;13.33;13.00;;;;;26.04;74.05;99461.84;6283044;20;2487841;-61
2022/08/23 09:02:34;;;;;;;;;18.00;15.00;;;;;25.97;74.47;99471.94;6314947;20;2814957;-61
2022/08/23 09:05:26;;;;;;;;;16.67;15.00;;;;;25.89;75.03;99463.81;6284084;20;3551270;-61
2022/08/23 09:09:02;;;;;;;;;16.00;13.00;;;;;26.49;71.58;99470.59;6286651;20;3415938;-62
2022/08/23 09:11:39;;;;;;;;;15.33;15.33;;;;;26.18;72.09;99464.69;6321243;20;3540884;-61
2022/08/23 09:14:51;;;;;;;;;14.00;13.00;;;;;25.67;72.06;99467.59;6315820;20;2787834;-60
2022/08/23 09:17:53;;;;;;;;;9.67;9.00;;;;;26.22;70.69;99463.22;6287290;20;2483618;-61
2022/08/23 09:20:28;;;;;;;;;13.00;11.67;;;;;26.82;69.65;99463.56;6317772;20;2487741;-62
2022/08/23 09:23:16;;;;;;;;;11.33;11.33;;;;;26.65;68.00;99469.44;6315850;20;3514866;-61
2022/08/23 09:25:59;;;;;;;;;11.00;11.00;;;;;27.02;64.72;99466.44;6315516;20;3517173;-61
2022/08/23 09:28:35;;;;;;;;;14.50;12.50;;;;;26.22;67.74;99458.53;6285144;20;2807586;-61
2022/08/23 09:31:04;;;;;;;;;14.67;12.67;;;;;26.54;67.74;99466.41;6283348;20;3524333;-62
2022/08/23 09:33:48;;;;;;;;;8.67;8.67;;;;;25.39;71.29;99462.91;6289319;20;2496187;-62
2022/08/23 09:36:24;;;;;;;;;12.00;12.00;;;;;25.82;69.56;99471.97;6319881;20;2483737;-63
2022/08/23 09:39:23;;;;;;;;;13.00;12.67;;;;;26.79;68.04;99470.34;6319579;20;3522103;-62
2022/08/23 09:41:59;;;;;;;;;13.33;13.33;;;;;27.07;67.64;99473.00;6317300;20;2489844;-63
2022/08/23 09:44:42;;;;;;;;;9.00;9.00;;;;;27.06;65.94;99465.78;6326769;20;2758580;-63
2022/08/23 09:47:16;;;;;;;;;11.33;11.33;;;;;26.77;67.07;99466.09;6317218;20;3513851;-62
2022/08/23 09:49:47;;;;;;;;;11.67;11.67;;;;;26.84;66.58;99470.59;6286194;20;2485659;-64
2022/08/23 09:52:33;;;;;;;;;12.00;10.33;;;;;26.72;68.38;99461.19;6316857;20;3514842;-62
2022/08/23 09:55:25;;;;;;;;;10.00;9.00;;;;;26.58;64.90;99468.53;6287020;20;2764875;-63
2022/08/23 09:57:53;;;;;;;;;8.00;8.00;;;;;26.14;66.91;99460.63;6312398;20;2752372;-62
2022/08/23 10:00:34;;;;;;;;;8.00;8.00;;;;;25.11;71.99;99465.53;6314971;20;2749297;-62
2022/08/23 10:03:26;;;;;;;;;11.00;11.00;;;;;24.70;72.05;99460.59;6316607;20;3513770;-62
2022/08/23 10:05:59;;;;;;;;;12.67;12.67;;;;;24.81;72.64;99464.75;6314508;20;3516828;-62
2022/08/23 10:08:39;;;;;;;;;14.00;14.00;;;;;24.69;76.27;99464.38;6280892;20;3537795;-62
2022/08/23 10:11:27;;;;;;;;;9.33;9.33;;;;;24.81;76.22;99471.09;6289690;20;2764913;-62
2022/08/23 10:13:56;;;;;;;;;15.00;13.67;;;;;24.27;75.23;99463.97;6313000;20;3531513;-62
2022/08/23 10:16:44;;;;;;;;;12.00;12.00;;;;;24.80;73.25;99468.53;6280322;20;3513817;-63
2022/08/23 10:19:58;;;;;;;;;11.00;11.00;;;;;25.03;73.59;99463.75;6282120;20;3520068;-62
2022/08/23 10:22:51;;;;;;;;;12.00;11.00;;;;;25.46;71.98;99468.47;6313954;20;3513873;-62
2022/08/23 10:25:47;;;;;;;;;11.00;10.00;;;;;25.07;71.67;99469.72;6316057;20;3517958;-63
2022/08/23 10:31:50;;;;;;;;;10.33;8.67;;;;;25.16;69.33;99463.09;6316690;20;2769025;-59
2022/08/23 10:34:42;;;;;;;;;11.67;11.67;;;;;24.99;70.94;99462.44;6316082;20;3517940;-61
2022/08/23 10:37:44;;;;;;;;;8.67;8.67;;;;;24.53;71.21;99451.72;6268806;20;2756568;-60
2022/08/23 10:40:31;;;;;;;;;10.33;9.67;;;;;24.85;73.28;99455.06;6313985;20;3503353;-61
2022/08/23 10:43:51;;;;;;;;;11.67;11.67;;;;;24.86;72.93;99448.56;6319592;20;3515932;-63
2022/08/23 10:46:22;;;;;;;;;12.67;12.67;;;;;26.14;68.81;99444.09;6314901;20;2483692;-61
2022/08/23 10:48:59;;;;;;;;;10.00;10.00;;;;;25.61;67.57;99445.34;6317802;20;3492970;-64
2022/08/23 10:51:36;;;;;;;;;13.33;13.33;;;;;25.82;66.76;99446.38;6315021;20;3525235;-63
2022/08/23 10:54:45;;;;;;;;;11.00;11.00;;;;;25.30;68.78;99440.19;6283525;20;2483586;-61
2022/08/23 10:57:18;;;;;;;;;11.67;11.67;;;;;25.33;69.98;99441.69;6312849;20;3514882;-63
2022/08/23 10:59:49;;;;;;;;;12.67;11.00;;;;;26.32;64.47;99449.09;6283167;20;3507511;-63
2022/08/23 11:02:36;;;;;;;;;10.67;10.67;;;;;26.72;63.17;99441.91;6312118;20;3533793;-64
2022/08/23 11:05:26;;;;;;;;;9.67;8.67;;;;;26.84;62.17;99443.03;6316652;20;3486826;-62
2022/08/23 11:08:05;;;;;;;;;9.67;8.33;;;;;26.91;62.74;99440.31;6320212;20;2752346;-64
2022/08/23 11:10:47;;;;;;;;;12.67;12.67;;;;;26.97;62.94;99439.47;6316406;20;2483695;-64
2022/08/23 11:13:28;;;;;;;;;13.33;10.67;;;;;27.76;61.33;99444.31;6317317;20;2475237;-63
2022/08/23 11:16:12;;;;;;;;;17.00;14.00;;;;;26.58;63.77;99434.66;6314437;20;3541887;-63
2022/08/23 11:18:50;;;;;;;;;13.00;11.33;;;;;27.49;60.66;99437.06;6286226;20;3514333;-66
2022/08/23 11:21:24;;;;;;;;;10.33;9.00;;;;;27.34;60.83;99442.78;6315994;20;3494687;-64
2022/08/23 11:23:59;;;;;;;;;8.00;8.00;;;;;27.07;60.28;99444.59;6317559;20;2752483;-64
2022/08/23 11:26:35;;;;;;;;;9.67;9.00;;;;;25.79;63.45;99438.53;6321445;20;2773177;-63
2022/08/23 11:29:06;;;;;;;;;10.00;10.00;;;;;27.39;59.59;99439.41;6317742;20;3501315;-67
2022/08/23 11:32:02;;;;;;;;;12.33;11.00;;;;;27.72;60.04;99431.13;6283729;20;3513804;-66
2022/08/23 11:35:08;;;;;;;;;7.00;7.00;;;;;27.65;58.24;99436.66;6319136;20;2744006;-64
2022/08/23 11:38:01;;;;;;;;;9.00;9.00;;;;;27.24;59.75;99440.44;6316607;20;2752325;-66
2022/08/23 11:40:51;;;;;;;;;10.33;10.33;;;;;27.54;58.28;99435.41;6311143;20;2794038;-67
2022/08/23 11:43:37;;;;;;;;;9.33;9.33;;;;;27.81;59.98;99431.84;6317042;20;2762775;-67
2022/08/23 11:46:24;;;;;;;;;8.67;8.67;;;;;27.48;58.17;99427.09;6314601;20;3458549;-72
2022/08/23 11:49:29;;;;;;;;;8.33;8.33;;;;;28.43;59.11;99433.19;6317398;20;2758695;-73
2022/08/23 11:52:16;;;;;;;;;9.67;9.67;;;;;28.17;56.37;99434.97;6315650;20;3490837;-72